Time;durP1;ratioP1;P1;durP2;ratioP2;P2;SDS_P1;SDS_P2;PMS_P1;PMS_P2;Temp;Humidity;BMP_temperature;BMP_pressure;BME280_temperature;BME280_humidity;BME280_pressure;Samples;Min_cycle;Max_cycle;Signal;HPM_P1;HPM_P2
2022/10/20 00:00:40;;;;;;;18.90;13.77;;;13.00;99.90;;;;;;5052918;28;20330;-78
2022/10/20 00:03:05;;;;;;;19.00;12.70;;;13.10;99.90;;;;;;5069672;28;20612;-77
2022/10/20 00:05:31;;;;;;;19.50;12.87;;;13.10;99.90;;;;;;5069648;28;20515;-77
2022/10/20 00:07:57;;;;;;;20.47;12.33;;;13.10;99.90;;;;;;5071106;28;20744;-77
2022/10/20 00:10:23;;;;;;;17.80;12.90;;;13.10;99.90;;;;;;5053250;28;20216;-77
2022/10/20 00:12:48;;;;;;;22.97;12.80;;;13.10;99.90;;;;;;5071284;28;20246;-77
2022/10/20 00:15:14;;;;;;;19.87;12.77;;;13.10;99.90;;;;;;5053211;28;20659;-78
2022/10/20 00:17:40;;;;;;;20.53;13.10;;;13.10;99.90;;;;;;5052540;28;20724;-78
2022/10/20 00:20:06;;;;;;;16.20;12.40;;;13.20;99.90;;;;;;5052856;28;20225;-77
2022/10/20 00:22:31;;;;;;;28.87;12.50;;;13.20;99.90;;;;;;5052813;28;20189;-78
2022/10/20 00:24:57;;;;;;;15.77;12.70;;;13.20;99.90;;;;;;5052806;28;20939;-77
2022/10/20 00:27:23;;;;;;;20.00;13.27;;;13.10;99.90;;;;;;5069433;28;20232;-76
2022/10/20 00:29:48;;;;;;;20.27;13.20;;;13.10;99.90;;;;;;5070331;28;20280;-77
2022/10/20 00:32:14;;;;;;;18.57;13.60;;;13.20;99.90;;;;;;5052119;28;20182;-77
2022/10/20 00:34:40;;;;;;;21.03;13.30;;;13.10;99.90;;;;;;5052124;28;20183;-77
2022/10/20 00:37:06;;;;;;;25.70;13.80;;;13.10;99.90;;;;;;5068580;28;20424;-77
2022/10/20 00:39:31;;;;;;;22.23;13.23;;;13.10;99.90;;;;;;5068830;28;20184;-77
2022/10/20 00:42:00;;;;;;;20.20;13.50;;;13.10;99.90;;;;;;5068071;28;20460;-77
2022/10/20 00:44:48;;;;;;;18.43;11.93;;;13.10;99.90;;;;;;5068329;28;20247;-77
2022/10/20 00:47:21;;;;;;;20.23;12.63;;;13.10;99.90;;;;;;5068469;28;20428;-77
2022/10/20 00:49:48;;;;;;;17.50;12.77;;;13.10;99.90;;;;;;5068514;28;20766;-77
2022/10/20 00:52:20;;;;;;;22.07;14.10;;;13.10;99.90;;;;;;5068399;28;20927;-77
2022/10/20 00:54:48;;;;;;;21.40;14.43;;;13.10;99.90;;;;;;5052181;28;20442;-78
2022/10/20 00:57:15;;;;;;;20.53;14.83;;;13.00;99.90;;;;;;5068528;28;20471;-78
2022/10/20 00:59:41;;;;;;;18.27;12.70;;;13.00;99.90;;;;;;5068209;28;20500;-78
2022/10/20 01:02:08;;;;;;;23.70;14.33;;;13.00;99.90;;;;;;5068083;28;20798;-77
2022/10/20 01:04:35;;;;;;;24.60;15.10;;;12.90;99.90;;;;;;5067923;28;20261;-78
2022/10/20 01:07:01;;;;;;;18.67;13.60;;;13.00;99.90;;;;;;5068435;28;20416;-77
2022/10/20 01:09:27;;;;;;;21.07;13.30;;;13.00;99.90;;;;;;5068190;28;20859;-78
2022/10/20 01:12:11;;;;;;;23.70;15.87;;;13.00;99.90;;;;;;5068000;28;21186;-78
2022/10/20 01:14:56;;;;;;;18.60;13.73;;;12.90;99.90;;;;;;5067852;28;21391;-78
2022/10/20 01:17:45;;;;;;;24.63;14.33;;;13.00;99.90;;;;;;5053224;28;20432;-78
2022/10/20 01:20:33;;;;;;;22.00;14.33;;;12.90;99.90;;;;;;5069121;28;20475;-77
2022/10/20 01:23:17;;;;;;;29.37;15.23;;;12.90;99.90;;;;;;5068144;28;20428;-78
2022/10/20 01:26:06;;;;;;;24.57;14.67;;;12.90;99.90;;;;;;5067747;28;20427;-77
2022/10/20 01:28:44;;;;;;;25.00;15.50;;;12.90;99.90;;;;;;5067696;28;20429;-77
2022/10/20 01:31:34;;;;;;;21.47;14.77;;;12.90;99.90;;;;;;5050726;28;20451;-77
2022/10/20 01:34:16;;;;;;;24.80;14.63;;;12.80;99.90;;;;;;5069077;28;20420;-78
2022/10/20 01:37:01;;;;;;;24.30;14.60;;;12.80;99.90;;;;;;5069658;28;20428;-78
2022/10/20 01:39:48;;;;;;;31.33;14.60;;;12.80;99.90;;;;;;5067844;28;20439;-78
2022/10/20 01:42:23;;;;;;;23.17;16.60;;;12.70;99.90;;;;;;5069126;28;20439;-78
2022/10/20 01:44:54;;;;;;;23.50;16.70;;;12.70;99.90;;;;;;5067772;28;20424;-78
2022/10/20 01:47:23;;;;;;;26.47;16.30;;;12.70;99.90;;;;;;5067795;28;20420;-78
2022/10/20 01:49:50;;;;;;;28.40;16.57;;;12.70;99.90;;;;;;5051054;28;20425;-79
2022/10/20 01:52:17;;;;;;;20.97;15.40;;;12.70;99.90;;;;;;5067780;28;20474;-77
2022/10/20 01:54:42;;;;;;;22.63;16.07;;;12.80;99.90;;;;;;5070234;28;20511;-78
2022/10/20 01:57:26;;;;;;;22.07;13.90;;;12.80;99.90;;;;;;5068960;28;20528;-78
2022/10/20 01:59:52;;;;;;;23.13;15.40;;;12.80;99.90;;;;;;5070395;28;20194;-78
2022/10/20 02:02:45;;;;;;;23.20;15.63;;;12.80;99.90;;;;;;5070310;28;20518;-78
2022/10/20 02:05:36;;;;;;;22.77;15.07;;;12.90;99.90;;;;;;5070011;28;20187;-78
2022/10/20 02:08:11;;;;;;;30.17;15.77;;;12.90;99.90;;;;;;5070039;28;20432;-79
2022/10/20 02:10:46;;;;;;;27.00;16.50;;;12.90;99.90;;;;;;5071384;28;20436;-78
2022/10/20 02:13:13;;;;;;;23.40;14.73;;;12.90;99.90;;;;;;5071628;28;20448;-77
2022/10/20 02:15:43;;;;;;;22.47;14.33;;;12.90;99.90;;;;;;5070082;28;20506;-78
2022/10/20 02:18:13;;;;;;;24.00;15.20;;;12.90;99.90;;;;;;5070255;28;20444;-78
2022/10/20 02:20:42;;;;;;;23.17;14.80;;;13.00;99.90;;;;;;5069934;28;20468;-78
2022/10/20 02:23:09;;;;;;;23.13;15.20;;;12.90;99.90;;;;;;5071428;28;20416;-78
2022/10/20 02:25:36;;;;;;;24.50;15.10;;;12.90;99.90;;;;;;5067682;28;20419;-78
2022/10/20 02:28:04;;;;;;;22.93;15.57;;;12.90;99.90;;;;;;5050753;28;20435;-78
2022/10/20 02:30:31;;;;;;;25.50;16.73;;;12.90;99.90;;;;;;5050902;28;20447;-78
2022/10/20 02:32:56;;;;;;;24.40;15.87;;;12.90;99.90;;;;;;5068688;28;20473;-79
2022/10/20 02:35:28;;;;;;;24.70;16.00;;;12.90;99.90;;;;;;5067420;28;20431;-78
2022/10/20 02:37:55;;;;;;;31.73;16.80;;;12.90;99.90;;;;;;5068779;28;20175;-78
2022/10/20 02:40:21;;;;;;;26.10;16.30;;;12.90;99.90;;;;;;5069458;28;20474;-79
2022/10/20 02:42:48;;;;;;;24.67;15.47;;;12.80;99.90;;;;;;5073620;28;20425;-78
2022/10/20 02:45:14;;;;;;;24.40;15.73;;;12.70;99.90;;;;;;5073730;28;20439;-78
2022/10/20 02:47:40;;;;;;;24.30;16.03;;;12.80;99.90;;;;;;5072409;28;20189;-79
2022/10/20 02:50:07;;;;;;;25.23;15.60;;;12.80;99.90;;;;;;5073473;28;20447;-78
2022/10/20 02:52:33;;;;;;;27.03;16.70;;;12.80;99.90;;;;;;5072263;28;20219;-78
2022/10/20 02:54:58;;;;;;;25.00;15.60;;;12.80;99.90;;;;;;5071997;28;20849;-79
2022/10/20 02:57:25;;;;;;;26.20;15.97;;;12.90;99.90;;;;;;5055119;28;20460;-78
2022/10/20 02:59:50;;;;;;;23.73;16.60;;;12.90;99.90;;;;;;5070927;28;20787;-78
2022/10/20 03:02:16;;;;;;;26.93;17.17;;;12.80;99.90;;;;;;5054090;28;20423;-78
2022/10/20 03:04:42;;;;;;;24.20;16.00;;;12.70;99.90;;;;;;5072697;28;20210;-78
2022/10/20 03:07:07;;;;;;;28.67;16.70;;;12.70;99.90;;;;;;5053933;28;20691;-78
2022/10/20 03:09:33;;;;;;;27.23;16.90;;;12.80;99.90;;;;;;5072001;28;20196;-77
2022/10/20 03:11:59;;;;;;;32.63;18.90;;;12.70;99.90;;;;;;5053607;28;20256;-78
2022/10/20 03:14:24;;;;;;;23.00;15.40;;;12.70;99.90;;;;;;5070504;28;20185;-77
2022/10/20 03:16:50;;;;;;;27.53;17.50;;;12.70;99.90;;;;;;5072221;28;20319;-77
2022/10/20 03:19:16;;;;;;;29.47;18.13;;;12.70;99.90;;;;;;5053833;28;20222;-78
2022/10/20 03:21:41;;;;;;;30.30;17.70;;;12.60;99.90;;;;;;5053504;28;20229;-77
2022/10/20 03:24:07;;;;;;;27.93;19.13;;;12.50;99.90;;;;;;5053686;28;20189;-78
2022/10/20 03:26:34;;;;;;;28.53;17.37;;;12.50;99.90;;;;;;5070071;28;20180;-76
2022/10/20 03:29:01;;;;;;;26.33;17.60;;;12.50;99.90;;;;;;5070031;28;20684;-79
2022/10/20 03:31:26;;;;;;;29.40;17.77;;;12.50;99.90;;;;;;5053033;28;20500;-79
2022/10/20 03:33:52;;;;;;;29.20;17.17;;;12.50;99.90;;;;;;5053106;28;20435;-77
2022/10/20 03:36:18;;;;;;;25.93;17.20;;;12.50;99.90;;;;;;5071476;28;20185;-79
2022/10/20 03:38:43;;;;;;;28.17;16.63;;;12.50;99.90;;;;;;5069931;28;20619;-78
2022/10/20 03:41:09;;;;;;;27.10;16.70;;;12.50;99.90;;;;;;5071038;28;20217;-78
2022/10/20 03:43:35;;;;;;;22.20;14.20;;;12.40;99.90;;;;;;5053193;28;20182;-78
2022/10/20 03:46:03;;;;;;;25.07;16.43;;;12.50;99.90;;;;;;5053017;28;20437;-79
2022/10/20 03:48:29;;;;;;;28.27;16.97;;;12.40;99.90;;;;;;5069706;28;20204;-78
2022/10/20 03:50:55;;;;;;;29.57;17.03;;;12.40;99.90;;;;;;5069420;28;20475;-79
2022/10/20 03:53:20;;;;;;;28.07;17.03;;;12.30;99.90;;;;;;5052751;28;20914;-78
2022/10/20 03:55:46;;;;;;;28.90;17.70;;;12.40;99.90;;;;;;5052656;28;20190;-79
2022/10/20 03:58:12;;;;;;;24.83;15.20;;;12.40;99.90;;;;;;5069423;28;20561;-78
2022/10/20 04:00:37;;;;;;;26.87;16.77;;;12.40;99.90;;;;;;5069259;28;20221;-78
2022/10/20 04:03:03;;;;;;;24.27;16.10;;;12.40;99.90;;;;;;5052578;28;20189;-79
2022/10/20 04:05:29;;;;;;;19.90;13.50;;;12.50;99.90;;;;;;5052517;28;20190;-79
2022/10/20 04:07:54;;;;;;;26.67;16.80;;;12.50;99.90;;;;;;5052494;28;20669;-78
2022/10/20 04:10:20;;;;;;;24.50;15.07;;;12.50;99.90;;;;;;5052461;28;20742;-78
2022/10/20 04:12:45;;;;;;;26.70;15.77;;;12.50;99.90;;;;;;5069133;28;20754;-78
2022/10/20 04:15:11;;;;;;;24.77;15.90;;;12.50;99.90;;;;;;5069117;28;20284;-78
2022/10/20 04:17:37;;;;;;;22.13;15.70;;;12.50;99.90;;;;;;5070540;28;20277;-78
2022/10/20 04:20:05;;;;;;;21.57;16.13;;;12.50;99.90;;;;;;5070270;28;20209;-79
2022/10/20 04:22:30;;;;;;;24.20;16.43;;;12.40;99.90;;;;;;5051251;28;20429;-78
2022/10/20 04:24:57;;;;;;;24.37;14.80;;;12.40;99.90;;;;;;5050721;28;20805;-77
2022/10/20 04:27:23;;;;;;;24.50;15.27;;;12.40;99.90;;;;;;5034022;28;20193;-79
2022/10/20 04:29:49;;;;;;;24.63;15.53;;;12.40;99.90;;;;;;5067153;28;20424;-78
2022/10/20 04:32:14;;;;;;;25.80;15.87;;;12.40;99.90;;;;;;5050468;28;20194;-78
2022/10/20 04:34:40;;;;;;;23.47;16.03;;;12.40;99.90;;;;;;5067104;28;20247;-77
2022/10/20 04:37:06;;;;;;;26.37;16.30;;;12.40;99.90;;;;;;5050368;28;20566;-79
2022/10/20 04:39:31;;;;;;;18.90;12.67;;;12.40;99.90;;;;;;5067414;28;20218;-78
2022/10/20 04:41:57;;;;;;;23.83;14.73;;;12.40;99.90;;;;;;5067038;28;20997;-78
2022/10/20 04:44:23;;;;;;;23.30;14.43;;;12.40;99.90;;;;;;5050313;28;20683;-78
2022/10/20 04:46:48;;;;;;;25.43;15.00;;;12.40;99.90;;;;;;5066862;28;20197;-77
2022/10/20 04:49:14;;;;;;;19.97;13.53;;;12.50;99.90;;;;;;5050130;28;20645;-78
2022/10/20 04:51:40;;;;;;;23.40;14.03;;;12.50;99.90;;;;;;5066771;28;20240;-78
2022/10/20 04:54:05;;;;;;;20.60;12.87;;;12.50;99.90;;;;;;5066595;28;20198;-78
2022/10/20 04:56:31;;;;;;;18.70;13.23;;;12.50;99.90;;;;;;5050095;28;20231;-79
2022/10/20 04:58:58;;;;;;;20.80;13.30;;;12.50;99.90;;;;;;5050012;28;20234;-78
2022/10/20 05:01:26;;;;;;;19.90;13.93;;;12.50;99.90;;;;;;5066458;28;20217;-78
2022/10/20 05:03:52;;;;;;;22.57;14.07;;;12.50;99.90;;;;;;5049186;28;20538;-78
2022/10/20 05:06:36;;;;;;;20.30;12.93;;;12.50;99.90;;;;;;5066454;28;20540;-78
2022/10/20 05:09:05;;;;;;;21.63;14.10;;;12.50;99.90;;;;;;5063289;28;20236;-78
2022/10/20 05:11:34;;;;;;;18.70;12.40;;;12.50;99.90;;;;;;5068447;28;20444;-78
2022/10/20 05:13:59;;;;;;;18.33;12.47;;;12.50;99.90;;;;;;5051064;28;20518;-78
2022/10/20 05:16:25;;;;;;;17.50;13.10;;;12.60;99.90;;;;;;5068260;28;20511;-78
2022/10/20 05:18:52;;;;;;;15.93;12.00;;;12.50;99.90;;;;;;5068668;28;20218;-78
2022/10/20 05:21:27;;;;;;;17.50;12.17;;;12.50;99.90;;;;;;5050809;28;20480;-78
2022/10/20 05:23:57;;;;;;;14.77;10.67;;;12.50;99.90;;;;;;5066592;28;20420;-79
2022/10/20 05:26:24;;;;;;;15.17;11.10;;;12.50;99.90;;;;;;5067057;28;20935;-79
2022/10/20 05:28:50;;;;;;;17.17;12.03;;;12.50;99.90;;;;;;5067850;28;20428;-78
2022/10/20 05:31:18;;;;;;;17.67;11.70;;;12.50;99.90;;;;;;5051598;28;20452;-79
2022/10/20 05:33:50;;;;;;;15.03;11.00;;;12.50;99.90;;;;;;5068110;28;20428;-79
2022/10/20 05:36:18;;;;;;;17.57;11.90;;;12.60;99.90;;;;;;5068265;28;20928;-78
2022/10/20 05:38:45;;;;;;;16.77;11.40;;;12.50;99.90;;;;;;5066253;28;20432;-78
2022/10/20 05:41:20;;;;;;;17.57;11.20;;;12.60;99.90;;;;;;5066176;28;20472;-77
2022/10/20 05:43:50;;;;;;;16.70;12.07;;;12.60;99.90;;;;;;5066751;28;20424;-78
2022/10/20 05:46:17;;;;;;;14.70;10.47;;;12.60;99.90;;;;;;5049635;28;20429;-78
2022/10/20 05:48:43;;;;;;;14.90;11.10;;;12.60;99.90;;;;;;5066553;28;20484;-78
2022/10/20 05:51:15;;;;;;;16.43;10.90;;;12.60;99.90;;;;;;5065966;28;20459;-77
2022/10/20 05:53:41;;;;;;;14.03;10.93;;;12.60;99.90;;;;;;5066934;28;20429;-77
2022/10/20 05:56:09;;;;;;;14.27;10.67;;;12.50;99.90;;;;;;5067399;28;20923;-77
2022/10/20 05:58:35;;;;;;;14.80;10.60;;;12.50;99.90;;;;;;5067153;28;20526;-77
2022/10/20 06:01:16;;;;;;;13.87;10.53;;;12.60;99.90;;;;;;5068190;28;21003;-77
2022/10/20 06:03:45;;;;;;;14.37;10.50;;;12.50;99.90;;;;;;5067261;28;20427;-77
2022/10/20 06:06:12;;;;;;;14.27;10.67;;;12.50;99.90;;;;;;5065891;28;20427;-78
2022/10/20 06:08:38;;;;;;;13.40;10.30;;;12.50;99.90;;;;;;5050220;28;20507;-77
2022/10/20 06:11:06;;;;;;;14.80;11.33;;;12.50;99.90;;;;;;5066661;28;20495;-77
2022/10/20 06:13:32;;;;;;;13.80;11.00;;;12.50;99.90;;;;;;5068010;28;20188;-77
2022/10/20 06:16:05;;;;;;;12.77;10.33;;;12.50;99.90;;;;;;5066750;28;20435;-79
2022/10/20 06:18:31;;;;;;;18.40;11.33;;;12.50;99.90;;;;;;5066088;28;20428;-76
2022/10/20 06:21:09;;;;;;;12.07;9.73;;;12.50;99.90;;;;;;5050018;28;21014;-80
2022/10/20 06:23:35;;;;;;;16.63;10.80;;;12.50;99.90;;;;;;5083203;28;20880;-79
2022/10/20 06:26:04;;;;;;;15.53;10.57;;;12.50;99.90;;;;;;5066492;28;20421;-77
2022/10/20 06:28:31;;;;;;;15.37;10.73;;;12.60;99.90;;;;;;5049071;28;20431;-77
2022/10/20 06:30:59;;;;;;;12.23;9.90;;;12.60;99.90;;;;;;5049269;28;20451;-77
2022/10/20 06:33:27;;;;;;;13.30;10.40;;;12.70;99.90;;;;;;5066171;28;20436;-78
2022/10/20 06:35:58;;;;;;;13.60;9.90;;;12.70;99.90;;;;;;5066948;28;20515;-79
2022/10/20 06:38:24;;;;;;;12.10;9.80;;;12.70;99.90;;;;;;5065877;28;20442;-79
2022/10/20 06:40:50;;;;;;;15.10;10.17;;;12.70;99.90;;;;;;5065971;28;20480;-79
2022/10/20 06:43:15;;;;;;;14.30;9.17;;;12.70;99.90;;;;;;5049940;28;20197;-79
2022/10/20 06:45:41;;;;;;;14.43;10.23;;;12.70;99.90;;;;;;5066225;28;20205;-78
2022/10/20 06:48:06;;;;;;;12.97;8.17;;;12.70;99.90;;;;;;5067122;28;20791;-79
2022/10/20 06:50:33;;;;;;;11.53;9.13;;;12.70;99.90;;;;;;5048667;28;20769;-78
2022/10/20 06:52:59;;;;;;;13.03;9.27;;;12.80;99.90;;;;;;5049072;28;20198;-78
2022/10/20 06:55:24;;;;;;;11.90;9.87;;;12.80;99.90;;;;;;5065254;28;20447;-78
2022/10/20 06:57:50;;;;;;;18.80;10.20;;;12.80;99.90;;;;;;5081558;28;20194;-78
2022/10/20 07:00:16;;;;;;;9.77;8.23;;;12.80;99.90;;;;;;5048193;28;20229;-78
2022/10/20 07:02:41;;;;;;;11.87;9.50;;;12.90;99.90;;;;;;5067149;28;20214;-81
2022/10/20 07:05:07;;;;;;;10.90;7.93;;;12.90;99.90;;;;;;5065731;28;20596;-80
2022/10/20 07:07:33;;;;;;;11.70;9.17;;;13.00;99.90;;;;;;5066674;28;20285;-79
2022/10/20 07:09:59;;;;;;;11.73;8.93;;;13.00;99.90;;;;;;5064959;28;20468;-79
2022/10/20 07:12:24;;;;;;;12.40;8.67;;;13.00;99.90;;;;;;5081464;28;20605;-79
2022/10/20 07:14:50;;;;;;;11.83;8.73;;;12.90;99.90;;;;;;5064821;28;20562;-79
2022/10/20 07:17:16;;;;;;;12.40;8.90;;;13.00;99.90;;;;;;5066482;28;20680;-78
2022/10/20 07:19:41;;;;;;;9.63;8.30;;;13.00;99.90;;;;;;5065011;28;20636;-78
2022/10/20 07:22:07;;;;;;;12.40;7.87;;;13.10;99.90;;;;;;5064673;28;20787;-79
2022/10/20 07:24:33;;;;;;;9.93;8.37;;;13.10;99.90;;;;;;5048186;28;20190;-79
2022/10/20 07:26:58;;;;;;;16.13;9.90;;;13.10;99.90;;;;;;5067432;28;20672;-79
2022/10/20 07:29:24;;;;;;;19.30;9.23;;;13.10;99.90;;;;;;5051797;28;20188;-79
2022/10/20 07:31:51;;;;;;;12.00;9.30;;;13.20;99.90;;;;;;5068435;28;20215;-77
2022/10/20 07:34:19;;;;;;;11.73;9.20;;;13.20;99.90;;;;;;5068769;28;20202;-79
2022/10/20 07:36:45;;;;;;;16.03;9.80;;;13.20;99.90;;;;;;5085499;28;20432;-78
2022/10/20 07:39:12;;;;;;;13.53;10.10;;;13.20;99.90;;;;;;5068550;28;20436;-79
2022/10/20 07:41:38;;;;;;;11.50;9.07;;;13.30;99.90;;;;;;5068507;28;20229;-79
2022/10/20 07:44:05;;;;;;;10.67;7.67;;;13.40;99.90;;;;;;5052177;28;20481;-79
2022/10/20 07:46:30;;;;;;;11.90;8.77;;;13.60;99.90;;;;;;5068465;28;20421;-79
2022/10/20 07:48:56;;;;;;;11.37;7.43;;;13.70;99.90;;;;;;5052104;28;20805;-78
2022/10/20 07:51:27;;;;;;;16.47;8.50;;;14.00;99.90;;;;;;5070405;28;20203;-78
2022/10/20 07:54:02;;;;;;;11.70;8.30;;;13.90;99.90;;;;;;5070383;28;20202;-78
2022/10/20 07:56:31;;;;;;;10.63;8.00;;;13.90;99.90;;;;;;5052492;28;20623;-79
2022/10/20 07:58:56;;;;;;;9.93;8.20;;;14.10;99.90;;;;;;5070354;28;20444;-79
2022/10/20 08:01:22;;;;;;;10.60;7.83;;;14.30;99.90;;;;;;5068969;28;20472;-79
2022/10/20 08:03:48;;;;;;;19.53;9.90;;;14.50;99.90;;;;;;5070392;28;20966;-78
2022/10/20 08:06:14;;;;;;;19.63;9.03;;;14.60;99.90;;;;;;5070245;28;20421;-79
2022/10/20 08:08:40;;;;;;;13.40;7.97;;;14.80;99.90;;;;;;5051416;28;20475;-80
2022/10/20 08:11:06;;;;;;;12.00;8.37;;;15.00;99.90;;;;;;5068189;28;20694;-80
2022/10/20 08:13:32;;;;;;;13.07;9.23;;;14.60;99.90;;;;;;5085219;28;20187;-78
2022/10/20 08:15:59;;;;;;;11.30;8.37;;;14.50;99.90;;;;;;5067855;28;20489;-79
2022/10/20 08:18:25;;;;;;;10.90;7.30;;;14.30;99.90;;;;;;5070175;28;20956;-78
2022/10/20 08:20:50;;;;;;;10.50;8.67;;;14.60;99.90;;;;;;5069406;28;20473;-79
2022/10/20 08:23:16;;;;;;;13.73;6.80;;;14.90;99.90;;;;;;5086183;28;20323;-79
2022/10/20 08:25:43;;;;;;;13.90;7.53;;;15.00;99.90;;;;;;5070118;28;20669;-77
2022/10/20 08:28:09;;;;;;;8.20;6.73;;;15.10;99.90;;;;;;5069669;28;20444;-79
2022/10/20 08:30:35;;;;;;;10.00;6.40;;;15.30;99.90;;;;;;5069915;28;20455;-79
2022/10/20 08:33:01;;;;;;;10.43;6.83;;;15.40;99.90;;;;;;5086858;28;20872;-79
2022/10/20 08:35:27;;;;;;;11.27;7.20;;;15.80;99.90;;;;;;5069657;28;20422;-78
2022/10/20 08:37:53;;;;;;;9.50;6.60;;;16.00;99.90;;;;;;5068765;28;20196;-79
2022/10/20 08:40:28;;;;;;;16.80;6.23;;;15.80;99.90;;;;;;5068668;28;20473;-78
2022/10/20 08:42:54;;;;;;;8.03;6.17;;;16.00;99.90;;;;;;5085208;28;20184;-79
2022/10/20 08:45:23;;;;;;;7.07;5.63;;;16.00;99.90;;;;;;5067331;28;20497;-80
2022/10/20 08:47:52;;;;;;;7.00;6.27;;;16.40;99.90;;;;;;5067444;28;20419;-79
2022/10/20 08:50:20;;;;;;;6.80;4.73;;;16.80;99.90;;;;;;5084209;28;20455;-78
2022/10/20 08:52:51;;;;;;;5.90;4.73;;;17.50;99.90;;;;;;5084410;28;20422;-78
2022/10/20 08:55:23;;;;;;;7.83;5.17;;;17.80;99.90;;;;;;5068222;28;20454;-78
2022/10/20 08:57:49;;;;;;;8.43;5.33;;;18.20;99.90;;;;;;5068164;28;20440;-80
2022/10/20 09:00:21;;;;;;;5.70;5.20;;;18.50;99.90;;;;;;5068011;28;20467;-79
2022/10/20 09:02:48;;;;;;;10.40;5.50;;;18.30;99.90;;;;;;5068398;28;20559;-79
2022/10/20 09:05:19;;;;;;;9.30;5.00;;;18.60;99.90;;;;;;5067755;28;20529;-78
2022/10/20 09:07:48;;;;;;;4.90;4.40;;;18.50;99.90;;;;;;5084388;28;20422;-78
2022/10/20 09:10:35;;;;;;;6.73;4.90;;;19.30;99.90;;;;;;5067276;28;20452;-77
2022/10/20 09:13:05;;;;;;;8.60;5.00;;;20.00;99.90;;;;;;5050085;28;20433;-77
2022/10/20 09:15:31;;;;;;;6.20;4.63;;;20.40;99.90;;;;;;5068237;28;20412;-77
2022/10/20 09:18:03;;;;;;;5.47;4.97;;;20.70;99.90;;;;;;5083833;28;21003;-77
2022/10/20 09:20:38;;;;;;;9.47;4.17;;;21.00;99.90;;;;;;5083324;28;20461;-79
2022/10/20 09:23:04;;;;;;;5.13;4.27;;;21.10;99.90;;;;;;5066740;28;20523;-77
2022/10/20 09:25:30;;;;;;;4.50;4.10;;;20.80;99.90;;;;;;5068037;28;20508;-78
2022/10/20 09:27:56;;;;;;;5.30;4.50;;;20.40;99.90;;;;;;5051066;28;20189;-77
2022/10/20 09:30:34;;;;;;;4.27;3.87;;;20.20;99.90;;;;;;5067433;28;20441;-78
2022/10/20 09:33:30;;;;;;;4.57;3.70;;;19.60;99.90;;;;;;5084699;28;20460;-76
2022/10/20 09:36:15;;;;;;;9.47;4.30;;;19.30;99.90;;;;;;5084576;28;20927;-77
2022/10/20 09:38:47;;;;;;;8.27;3.90;;;19.10;99.90;;;;;;5069770;28;20420;-76
2022/10/20 09:41:15;;;;;;;5.23;4.30;;;19.10;99.90;;;;;;5068165;28;20839;-78
2022/10/20 09:43:56;;;;;;;4.90;4.20;;;19.20;99.90;;;;;;5085052;28;20425;-78
2022/10/20 09:46:37;;;;;;;7.43;3.47;;;19.00;99.90;;;;;;5068298;28;20510;-77
2022/10/20 09:49:05;;;;;;;5.53;3.80;;;19.20;99.90;;;;;;5084592;28;20428;-77
2022/10/20 09:51:32;;;;;;;5.50;4.00;;;19.20;99.90;;;;;;5067777;28;20448;-78
2022/10/20 09:54:09;;;;;;;7.77;3.77;;;19.00;99.90;;;;;;5070057;28;20433;-79
2022/10/20 09:59:21;;;;;;;4.17;3.50;;;19.00;99.90;;;;;;5047105;28;20462;-75
2022/10/20 10:01:57;;;;;;;4.47;3.80;;;18.80;99.90;;;;;;5029417;28;20583;-75
2022/10/20 10:04:37;;;;;;;5.10;4.40;;;18.70;99.90;;;;;;5029782;28;20421;-75
2022/10/20 10:07:24;;;;;;;11.83;5.23;;;18.50;99.90;;;;;;5047075;28;20421;-75
2022/10/20 10:09:58;;;;;;;12.13;5.00;;;18.20;99.90;;;;;;5047167;28;20434;-73
2022/10/20 10:12:26;;;;;;;6.43;3.90;;;18.00;99.90;;;;;;5045680;28;20916;-74
2022/10/20 10:14:55;;;;;;;11.37;3.73;;;17.90;99.90;;;;;;5047344;28;20417;-74
2022/10/20 10:17:37;;;;;;;5.40;3.70;;;18.00;99.90;;;;;;5045872;28;20927;-74
2022/10/20 10:20:26;;;;;;;3.80;3.50;;;18.10;99.90;;;;;;5047684;28;20508;-74
2022/10/20 10:23:05;;;;;;;11.50;4.77;;;17.90;99.90;;;;;;5046978;28;21150;-74
2022/10/20 10:25:30;;;;;;;4.20;3.63;;;18.10;99.90;;;;;;5031449;28;20407;-74
2022/10/20 10:27:59;;;;;;;7.00;4.60;;;18.00;99.90;;;;;;5047345;28;20421;-74
2022/10/20 10:30:33;;;;;;;5.87;4.23;;;18.20;99.90;;;;;;5047571;28;20555;-73
2022/10/20 10:33:00;;;;;;;11.63;4.87;;;18.40;99.90;;;;;;5029256;28;20456;-75
2022/10/20 10:35:42;;;;;;;6.13;4.27;;;18.60;99.90;;;;;;5029046;28;20421;-75
2022/10/20 10:38:10;;;;;;;8.10;3.93;;;18.90;99.90;;;;;;5045524;28;20455;-75
2022/10/20 10:40:46;;;;;;;4.70;3.90;;;19.10;99.90;;;;;;5046863;28;20471;-75
2022/10/20 10:43:28;;;;;;;4.87;4.33;;;19.50;99.90;;;;;;5047311;28;20866;-75
2022/10/20 10:46:04;;;;;;;4.80;4.27;;;19.50;99.90;;;;;;5047351;28;21053;-75
2022/10/20 10:48:46;;;;;;;12.23;4.77;;;19.80;99.90;;;;;;5045909;28;20423;-75
2022/10/20 10:51:49;;;;;;;7.70;4.87;;;19.70;99.90;;;;;;5047200;28;20419;-75
2022/10/20 10:54:39;;;;;;;5.50;4.23;;;19.40;99.90;;;;;;5045207;28;20482;-75
2022/10/20 10:57:12;;;;;;;7.40;5.10;;;19.00;99.90;;;;;;5046491;28;20431;-75
2022/10/20 10:59:43;;;;;;;8.97;4.90;;;18.20;99.90;;;;;;5047069;28;20406;-75
2022/10/20 11:02:27;;;;;;;7.40;4.43;;;18.10;99.90;;;;;;5049946;28;21241;-75
2022/10/20 11:05:30;;;;;;;7.73;4.80;;;18.10;99.90;;;;;;5050945;28;20465;-74
2022/10/20 11:08:20;;;;;;;14.97;4.90;;;18.20;99.90;;;;;;5049678;28;20438;-75
2022/10/20 11:11:04;;;;;;;5.33;4.53;;;18.00;99.90;;;;;;5050328;28;20417;-75
2022/10/20 11:13:33;;;;;;;7.23;4.40;;;17.80;99.90;;;;;;5050169;28;21040;-74
2022/10/20 11:16:17;;;;;;;5.03;4.27;;;17.80;99.90;;;;;;5050390;28;21041;-75
2022/10/20 11:19:01;;;;;;;6.23;3.40;;;17.70;99.90;;;;;;5050968;28;20529;-75
2022/10/20 11:21:42;;;;;;;6.30;4.43;;;17.80;99.90;;;;;;5048657;28;20465;-74
2022/10/20 11:24:22;;;;;;;4.80;4.40;;;17.80;99.90;;;;;;5048803;28;20460;-75
2022/10/20 11:26:55;;;;;;;8.73;4.53;;;18.00;99.90;;;;;;5050183;28;20931;-75
2022/10/20 11:29:33;;;;;;;6.90;4.40;;;18.20;99.90;;;;;;5050380;28;20419;-75
2022/10/20 11:32:12;;;;;;;7.03;4.00;;;18.40;99.90;;;;;;5117742;22;20493;-78
2022/10/20 11:34:58;;;;;;;8.73;3.93;;;18.50;99.90;;;;;;5093131;28;20454;-78
2022/10/20 11:37:45;;;;;;;5.70;3.70;;;18.60;99.90;;;;;;5092418;28;20457;-78
2022/10/20 11:40:11;;;;;;;4.80;3.50;;;18.70;99.90;;;;;;5112261;28;20428;-78
2022/10/20 11:43:05;;;;;;;6.87;4.03;;;18.90;99.90;;;;;;5112640;28;20422;-79
2022/10/20 11:45:44;;;;;;;6.00;3.50;;;19.00;99.90;;;;;;5093405;28;20521;-79
2022/10/20 11:48:30;;;;;;;5.70;3.30;;;19.20;99.90;;;;;;5112492;28;20414;-79
2022/10/20 11:51:14;;;;;;;8.43;4.70;;;19.30;99.90;;;;;;5112107;28;20525;-78
2022/10/20 11:53:49;;;;;;;4.53;3.43;;;19.10;99.90;;;;;;5093594;28;20468;-79
2022/10/20 11:56:17;;;;;;;5.10;3.80;;;19.00;99.90;;;;;;5093510;28;21289;-79
2022/10/20 11:59:10;;;;;;;6.50;4.03;;;19.00;99.90;;;;;;5111345;28;20422;-79
2022/10/20 12:01:40;;;;;;;7.73;4.00;;;19.00;99.90;;;;;;5110736;28;20473;-79
2022/10/20 12:04:38;;;;;;;8.10;4.37;;;18.80;99.90;;;;;;5110492;28;20417;-79
2022/10/20 12:07:30;;;;;;;6.83;4.83;;;18.80;99.90;;;;;;5075164;28;20419;-80
2022/10/20 12:10:34;;;;;;;13.03;4.40;;;18.60;99.90;;;;;;5092061;28;20436;-79
2022/10/20 12:13:21;;;;;;;10.03;3.67;;;18.60;99.90;;;;;;5053165;28;20419;-79
2022/10/20 12:15:48;;;;;;;6.53;4.00;;;18.40;99.90;;;;;;5091707;28;20459;-79
2022/10/20 12:18:35;;;;;;;6.37;3.80;;;18.40;99.90;;;;;;5074913;28;20439;-79
2022/10/20 12:21:07;;;;;;;8.90;4.30;;;18.30;99.90;;;;;;5109143;28;21008;-80
2022/10/20 12:23:42;;;;;;;8.80;4.80;;;18.20;99.90;;;;;;5091262;28;20977;-78
2022/10/20 12:26:31;;;;;;;7.03;4.80;;;18.20;99.90;;;;;;5091486;28;20480;-79
2022/10/20 12:28:58;;;;;;;10.17;5.77;;;18.10;99.90;;;;;;5109855;28;20908;-79
2022/10/20 12:31:24;;;;;;;8.70;5.20;;;18.00;99.90;;;;;;5073754;28;20993;-78
2022/10/20 12:33:53;;;;;;;7.90;4.43;;;18.10;99.90;;;;;;5074358;28;20427;-79
2022/10/20 12:36:18;;;;;;;9.93;4.73;;;18.10;99.90;;;;;;5091065;28;20432;-78
2022/10/20 12:38:52;;;;;;;6.30;5.40;;;18.20;99.90;;;;;;5091315;28;20431;-78
2022/10/20 12:41:28;;;;;;;7.20;4.17;;;18.20;99.90;;;;;;5074086;28;20220;-78
2022/10/20 12:43:59;;;;;;;6.37;4.17;;;18.10;99.90;;;;;;5074260;28;20438;-78
2022/10/20 12:46:31;;;;;;;10.57;5.70;;;18.20;99.90;;;;;;5074110;28;20895;-78
2022/10/20 12:49:01;;;;;;;8.80;4.20;;;18.20;99.90;;;;;;5091141;28;20519;-79
2022/10/20 12:51:31;;;;;;;7.00;4.20;;;18.10;99.90;;;;;;5091732;28;20435;-78
2022/10/20 12:54:23;;;;;;;6.20;4.43;;;18.20;99.90;;;;;;5109500;28;20421;-78
2022/10/20 12:56:51;;;;;;;6.60;4.20;;;18.20;99.90;;;;;;5095255;28;20492;-79